createdAt,value
2019-05-17T00:00:00.500Z,7.7
2019-05-17T00:01:08.104Z,7.7
2019-05-17T00:02:17.972Z,7.7
2019-05-17T00:03:27.471Z,7.7
2019-05-17T00:04:36.860Z,7.7
2019-05-17T00:05:46.476Z,7.7
2019-05-17T00:06:53.776Z,7.6
2019-05-17T00:08:03.288Z,7.6
2019-05-17T00:09:10.491Z,7.6
2019-05-17T00:10:18.026Z,7.6
2019-05-17T00:11:27.179Z,7.6
2019-05-17T00:12:37.086Z,7.6
2019-05-17T00:13:46.479Z,7.6
2019-05-17T00:14:53.493Z,7.6
2019-05-17T00:16:02.732Z,7.7
2019-05-17T00:17:09.938Z,7.7
2019-05-17T00:18:17.772Z,7.7
2019-05-17T00:19:26.872Z,7.7
2019-05-17T00:20:33.798Z,7.7
2019-05-17T00:21:43.615Z,7.7
2019-05-17T00:22:50.287Z,7.7
2019-05-17T00:23:57.860Z,7.7
2019-05-17T00:25:07.124Z,7.7
2019-05-17T00:26:16.842Z,7.7
2019-05-17T00:27:26.347Z,7.7
2019-05-17T00:28:33.688Z,7.7
2019-05-17T00:29:40.892Z,7.7
2019-05-17T00:30:47.822Z,7.7
2019-05-17T00:31:57.235Z,7.7
2019-05-17T00:33:04.434Z,7.7
2019-05-17T00:34:16.581Z,7.7
2019-05-17T00:35:24.020Z,7.7
2019-05-17T00:36:33.436Z,7.7
2019-05-17T00:37:40.383Z,7.7
2019-05-17T00:38:51.839Z,7.7
2019-05-17T00:39:59.041Z,7.6
2019-05-17T00:41:07.624Z,7.6
2019-05-17T00:42:16.831Z,7.6
2019-05-17T00:43:26.108Z,7.7
2019-05-17T00:44:33.131Z,7.7
2019-05-17T00:45:40.330Z,7.6
2019-05-17T00:46:47.531Z,7.7
2019-05-17T00:47:57.108Z,7.6
2019-05-17T00:49:07.001Z,7.7
2019-05-17T00:50:16.766Z,7.7
2019-05-17T00:51:23.867Z,7.7
2019-05-17T00:52:33.592Z,7.7
2019-05-17T00:53:43.208Z,7.6
2019-05-17T00:54:50.411Z,7.6
2019-05-17T00:55:57.877Z,7.6
2019-05-17T00:57:07.261Z,7.6
2019-05-17T00:58:16.969Z,7.6
2019-05-17T00:59:26.772Z,7.6
2019-05-17T01:00:33.706Z,7.6
2019-05-17T01:01:46.758Z,7.6
2019-05-17T01:02:53.836Z,7.6
2019-05-17T01:04:03.542Z,7.5
2019-05-17T01:05:13.075Z,7.6
2019-05-17T01:06:20.006Z,7.6
2019-05-17T01:07:27.483Z,7.6
2019-05-17T01:08:37.057Z,7.6
2019-05-17T01:09:47.113Z,7.5
2019-05-17T01:10:56.240Z,7.6
2019-05-17T01:12:03.768Z,7.5
2019-05-17T01:13:12.992Z,7.5
2019-05-17T01:14:20.197Z,7.6
2019-05-17T01:15:27.914Z,7.6
2019-05-17T01:16:37.338Z,7.5
2019-05-17T01:17:44.555Z,7.6
2019-05-17T01:18:54.014Z,7.6
2019-05-17T01:20:00.937Z,7.6
2019-05-17T01:21:08.141Z,7.6
2019-05-17T01:22:17.155Z,7.6
2019-05-17T01:23:24.364Z,7.6
2019-05-17T01:24:33.798Z,7.6
2019-05-17T01:25:43.055Z,7.6
2019-05-17T01:26:49.984Z,7.6
2019-05-17T01:27:57.191Z,7.5
2019-05-17T01:29:06.554Z,7.6
2019-05-17T01:30:13.923Z,7.6
2019-05-17T01:31:23.665Z,7.6
2019-05-17T01:32:33.313Z,7.5
2019-05-17T01:33:40.519Z,7.6
2019-05-17T01:34:47.714Z,7.5
2019-05-17T01:35:57.109Z,7.5
2019-05-17T01:37:06.925Z,7.6
2019-05-17T01:38:13.840Z,7.6
2019-05-17T01:39:22.069Z,7.5
2019-05-17T01:40:29.271Z,7.6
2019-05-17T01:41:37.785Z,7.6
2019-05-17T01:42:47.138Z,7.6
2019-05-17T01:43:56.417Z,7.6
2019-05-17T01:45:04.031Z,7.6
2019-05-17T01:46:10.956Z,7.6
2019-05-17T01:47:18.153Z,7.6
2019-05-17T01:48:27.497Z,7.6
2019-05-17T01:49:36.804Z,7.6
2019-05-17T01:50:46.358Z,7.6
2019-05-17T01:51:53.683Z,7.6
2019-05-17T01:53:03.049Z,7.6
2019-05-17T01:54:10.249Z,7.7
2019-05-17T01:55:17.993Z,7.6
2019-05-17T01:56:26.800Z,7.6
2019-05-17T01:57:33.999Z,7.6
2019-05-17T01:58:43.670Z,7.6
2019-05-17T01:59:53.187Z,7.6
2019-05-17T02:01:00.118Z,7.6
2019-05-17T02:02:07.667Z,7.5
2019-05-17T02:03:17.175Z,7.6
2019-05-17T02:04:26.654Z,7.6
2019-05-17T02:05:33.734Z,7.6
2019-05-17T02:06:43.914Z,7.6
2019-05-17T02:07:53.448Z,7.6
2019-05-17T02:09:03.157Z,7.6
2019-05-17T02:10:12.316Z,7.7
2019-05-17T02:11:19.517Z,7.7
2019-05-17T02:12:27.309Z,7.7
2019-05-17T02:13:34.512Z,7.7
2019-05-17T02:14:46.660Z,7.7
2019-05-17T02:15:56.275Z,7.7
2019-05-17T02:17:03.598Z,7.7
2019-05-17T02:18:13.066Z,7.7
2019-05-17T02:19:20.270Z,7.7
2019-05-17T02:20:28.079Z,7.7
2019-05-17T02:21:39.225Z,7.6
2019-05-17T02:22:47.893Z,7.6
2019-05-17T02:23:57.588Z,7.6
2019-05-17T02:25:07.118Z,7.6
2019-05-17T02:26:14.423Z,7.7
2019-05-17T02:27:34.694Z,7.6
2019-05-17T02:28:52.552Z,7.7
2019-05-17T02:30:03.040Z,7.7
2019-05-17T02:31:13.702Z,7.7
2019-05-17T02:32:24.023Z,7.7
2019-05-17T02:33:33.787Z,7.7
2019-05-17T02:34:43.596Z,7.7
2019-05-17T02:35:53.790Z,7.7
2019-05-17T02:37:03.577Z,7.7
2019-05-17T02:38:13.677Z,7.7
2019-05-17T02:39:23.863Z,7.7
2019-05-17T02:40:34.544Z,7.7
2019-05-17T02:41:43.653Z,7.7
2019-05-17T02:42:53.989Z,7.7
2019-05-17T02:44:02.972Z,7.7
2019-05-17T02:45:13.936Z,7.7
2019-05-17T02:46:23.639Z,7.7
2019-05-17T02:47:34.057Z,7.7
2019-05-17T02:48:43.386Z,7.8
2019-05-17T02:49:53.008Z,7.7
2019-05-17T02:51:04.043Z,7.8
2019-05-17T02:52:13.014Z,7.8
2019-05-17T02:53:23.424Z,7.8
2019-05-17T02:54:33.350Z,7.7
2019-05-17T02:55:43.731Z,7.7
2019-05-17T02:56:53.641Z,7.7
2019-05-17T02:58:03.878Z,7.7
2019-05-17T02:59:14.048Z,7.7
2019-05-17T03:00:24.457Z,7.7
2019-05-17T03:01:33.838Z,7.7
2019-05-17T03:02:44.224Z,7.7
2019-05-17T03:03:53.505Z,7.7
2019-05-17T03:05:04.477Z,7.7
2019-05-17T03:06:14.201Z,7.8
2019-05-17T03:07:23.773Z,7.7
2019-05-17T03:08:34.613Z,7.7
2019-05-17T03:09:43.715Z,7.8
2019-05-17T03:10:53.866Z,7.7
2019-05-17T03:12:04.102Z,7.8
2019-05-17T03:13:17.967Z,7.8
2019-05-17T03:14:25.317Z,7.8
2019-05-17T03:15:33.016Z,7.8
2019-05-17T03:16:43.453Z,7.8
2019-05-17T03:17:54.106Z,7.8
2019-05-17T03:19:04.714Z,7.8
2019-05-17T03:20:13.812Z,7.8
2019-05-17T03:21:23.490Z,7.9
2019-05-17T03:22:33.577Z,7.9
2019-05-17T03:23:43.985Z,7.8
2019-05-17T03:24:53.871Z,7.9
2019-05-17T03:26:04.337Z,7.8
2019-05-17T03:27:14.071Z,7.8
2019-05-17T03:28:24.281Z,7.8
2019-05-17T03:29:34.140Z,7.8
2019-05-17T03:30:47.519Z,7.8
2019-05-17T03:32:07.943Z,7.9
2019-05-17T03:33:27.652Z,7.9
2019-05-17T03:34:37.953Z,7.9
2019-05-17T03:35:46.697Z,7.9
2019-05-17T03:36:57.304Z,7.9
2019-05-17T03:38:04.716Z,7.9
2019-05-17T03:39:13.520Z,7.9
2019-05-17T03:41:13.235Z,7.9
2019-05-17T03:42:49.523Z,7.9
2019-05-17T03:44:03.716Z,8
2019-05-17T03:45:14.358Z,7.9
2019-05-17T03:46:23.568Z,8
2019-05-17T03:47:33.875Z,7.9
2019-05-17T03:48:44.116Z,8
2019-05-17T03:49:53.685Z,7.9
2019-05-17T03:51:03.185Z,8
2019-05-17T03:52:14.006Z,8
2019-05-17T03:53:23.450Z,7.9
2019-05-17T03:54:33.051Z,7.9
2019-05-17T03:55:43.493Z,8
2019-05-17T03:56:53.682Z,8
2019-05-17T03:58:03.967Z,8
2019-05-17T03:59:13.308Z,8
2019-05-17T04:00:23.842Z,8
2019-05-17T04:01:33.327Z,7.9
2019-05-17T04:02:45.049Z,7.9
2019-05-17T04:03:53.570Z,7.9
2019-05-17T04:05:04.661Z,7.9
2019-05-17T04:06:13.853Z,8
2019-05-17T04:07:23.985Z,7.9
2019-05-17T04:08:34.017Z,8
2019-05-17T04:09:44.290Z,7.9
2019-05-17T04:10:53.539Z,7.9
2019-05-17T04:12:03.490Z,8
2019-05-17T04:13:13.450Z,8
2019-05-17T04:14:23.055Z,8
2019-05-17T04:15:33.451Z,8
2019-05-17T04:16:43.478Z,8
2019-05-17T04:17:53.397Z,8
2019-05-17T04:19:03.573Z,8
2019-05-17T04:20:14.326Z,8
2019-05-17T04:21:24.078Z,8.1
2019-05-17T04:22:33.694Z,8
2019-05-17T04:23:43.472Z,8.1
2019-05-17T04:24:53.092Z,8.1
2019-05-17T04:26:04.559Z,8.1
2019-05-17T04:27:14.171Z,8.1
2019-05-17T04:28:23.575Z,8.1
2019-05-17T04:29:33.772Z,8.1
2019-05-17T04:30:43.735Z,8.1
2019-05-17T04:31:54.221Z,8.1
2019-05-17T04:33:04.303Z,8.1
2019-05-17T04:34:14.087Z,8.2
2019-05-17T04:35:23.857Z,8.2
2019-05-17T04:36:32.896Z,8.2
2019-05-17T04:37:39.882Z,8.2
2019-05-17T04:38:53.204Z,8.2
2019-05-17T04:40:03.976Z,8.2
2019-05-17T04:41:13.830Z,8.2
2019-05-17T04:42:23.313Z,8.2
2019-05-17T04:43:33.847Z,8.2
2019-05-17T04:44:43.514Z,8.2
2019-05-17T04:45:53.994Z,8.2
2019-05-17T04:47:03.804Z,8.2
2019-05-17T04:48:13.790Z,8.3
2019-05-17T04:49:24.679Z,8.3
2019-05-17T04:50:34.092Z,8.3
2019-05-17T04:51:44.509Z,8.3
2019-05-17T04:52:54.267Z,8.3
2019-05-17T04:54:03.920Z,8.3
2019-05-17T04:55:14.203Z,8.3
2019-05-17T04:56:23.351Z,8.3
2019-05-17T04:57:33.129Z,8.3
2019-05-17T04:58:43.302Z,8.4
2019-05-17T04:59:52.906Z,8.4
2019-05-17T05:01:03.610Z,8.4
2019-05-17T05:02:13.715Z,8.4
2019-05-17T05:03:23.644Z,8.4
2019-05-17T05:04:37.732Z,8.4
2019-05-17T05:05:53.157Z,8.4
2019-05-17T05:07:03.538Z,8.5
2019-05-17T05:08:13.589Z,8.5
2019-05-17T05:09:23.631Z,8.5
2019-05-17T05:10:38.186Z,8.5
2019-05-17T05:12:05.564Z,8.6
2019-05-17T05:13:13.956Z,8.6
2019-05-17T05:14:23.822Z,8.6
2019-05-17T05:15:32.827Z,8.6
2019-05-17T05:16:42.802Z,8.7
2019-05-17T05:17:52.621Z,8.6
2019-05-17T05:18:59.346Z,8.7
2019-05-17T05:20:12.760Z,8.7
2019-05-17T05:21:23.279Z,8.7
2019-05-17T05:22:33.261Z,8.7
2019-05-17T05:23:42.867Z,8.7
2019-05-17T05:25:04.720Z,8.7
2019-05-17T05:26:12.548Z,8.8
2019-05-17T05:27:22.149Z,8.7
2019-05-17T05:28:32.158Z,8.6
2019-05-17T05:29:41.225Z,8.6
2019-05-17T05:30:48.723Z,8.6
2019-05-17T05:31:55.932Z,8.7
2019-05-17T05:33:03.134Z,8.7
2019-05-17T05:34:12.758Z,8.7
2019-05-17T05:35:22.305Z,8.7
2019-05-17T05:36:29.379Z,8.7
2019-05-17T05:37:39.003Z,8.7
2019-05-17T05:38:49.050Z,8.8
2019-05-17T05:39:57.999Z,8.8
2019-05-17T05:41:05.199Z,8.8
2019-05-17T05:42:14.568Z,8.8
2019-05-17T05:43:23.196Z,8.8
2019-05-17T05:44:32.504Z,8.8
2019-05-17T05:45:42.056Z,8.7
2019-05-17T05:46:51.364Z,8.7
2019-05-17T05:47:58.393Z,8.7
2019-05-17T05:49:08.028Z,8.8
2019-05-17T05:50:18.116Z,8.9
2019-05-17T05:51:27.807Z,9
2019-05-17T05:52:35.013Z,9
2019-05-17T05:53:42.545Z,9
2019-05-17T05:54:49.469Z,9.1
2019-05-17T05:55:58.477Z,9.1
2019-05-17T05:57:06.054Z,9.1
2019-05-17T05:58:13.252Z,9.1
2019-05-17T05:59:22.928Z,9.1
2019-05-17T06:00:32.819Z,9.2
2019-05-17T06:01:42.672Z,9.2
2019-05-17T06:02:52.190Z,9.2
2019-05-17T06:03:59.508Z,9.2
2019-05-17T06:05:08.925Z,9.1
2019-05-17T06:06:15.845Z,9.1
2019-05-17T06:07:23.050Z,9.1
2019-05-17T06:08:32.621Z,9.2
2019-05-17T06:09:39.549Z,9.2
2019-05-17T06:10:49.085Z,9.2
2019-05-17T06:11:59.025Z,9.2
2019-05-17T06:13:08.361Z,9.2
2019-05-17T06:14:15.556Z,9.2
2019-05-17T06:15:22.765Z,9.2
2019-05-17T06:16:31.947Z,9.2
2019-05-17T06:17:39.264Z,9.2
2019-05-17T06:18:49.004Z,9.3
2019-05-17T06:19:58.379Z,9.3
2019-05-17T06:21:05.577Z,9.3
2019-05-17T06:22:12.783Z,9.3
2019-05-17T06:23:19.985Z,9.3
2019-05-17T06:24:31.797Z,9.4
2019-05-17T06:25:39.158Z,9.4
2019-05-17T06:26:46.362Z,9.4
2019-05-17T06:27:53.571Z,9.4
2019-05-17T06:29:03.182Z,9.4
2019-05-17T06:30:13.054Z,9.3
2019-05-17T06:31:20.260Z,9.3
2019-05-17T06:32:27.468Z,9.4
2019-05-17T06:33:35.469Z,9.4
2019-05-17T06:34:42.904Z,9.4
2019-05-17T06:35:52.359Z,9.4
2019-05-17T06:37:02.041Z,9.5
2019-05-17T06:38:11.789Z,9.5
2019-05-17T06:39:19.175Z,9.6
2019-05-17T06:40:29.139Z,9.6
2019-05-17T06:41:38.735Z,9.7
2019-05-17T06:42:48.585Z,9.7
2019-05-17T06:43:55.789Z,9.8
2019-05-17T06:45:02.998Z,9.8
2019-05-17T06:46:12.832Z,9.8
2019-05-17T06:47:22.387Z,9.7
2019-05-17T06:48:32.239Z,9.8
2019-05-17T06:49:39.439Z,9.9
2019-05-17T06:50:49.077Z,9.9
2019-05-17T06:51:58.647Z,10
2019-05-17T06:53:05.574Z,10
2019-05-17T06:54:12.792Z,9.9
2019-05-17T06:55:19.728Z,10
2019-05-17T06:56:26.663Z,10
2019-05-17T06:57:33.594Z,10
2019-05-17T06:58:40.804Z,10
2019-05-17T06:59:47.998Z,10.1
2019-05-17T07:00:55.209Z,10.2
2019-05-17T07:02:02.409Z,10.2
2019-05-17T07:03:10.213Z,10.3
2019-05-17T07:04:19.215Z,10.3
2019-05-17T07:05:26.529Z,10.3
2019-05-17T07:06:36.066Z,10.4
2019-05-17T07:07:42.994Z,10.4
2019-05-17T07:08:50.195Z,10.4
2019-05-17T07:09:57.398Z,10.4
2019-05-17T07:11:09.692Z,10.5
2019-05-17T07:12:16.999Z,10.5
2019-05-17T07:13:26.713Z,10.7
2019-05-17T07:14:33.644Z,10.8
2019-05-17T07:15:50.752Z,10.8
2019-05-17T07:17:00.113Z,10.8
2019-05-17T07:18:10.016Z,10.9
2019-05-17T07:19:19.633Z,10.9
2019-05-17T07:20:26.959Z,11
2019-05-17T07:21:36.649Z,11.1
2019-05-17T07:22:43.575Z,11
2019-05-17T07:23:50.779Z,11
2019-05-17T07:25:00.168Z,11.1
2019-05-17T07:26:12.248Z,10.9
2019-05-17T07:27:19.941Z,10.9
2019-05-17T07:28:27.157Z,10.9
2019-05-17T07:29:36.874Z,11.1
2019-05-17T07:30:46.558Z,11.3
2019-05-17T07:31:53.773Z,11.4
2019-05-17T07:33:01.142Z,11.5
2019-05-17T07:34:09.496Z,11.6
2019-05-17T07:35:16.700Z,11.5
2019-05-17T07:36:26.456Z,11.4
2019-05-17T07:37:33.658Z,11.5
2019-05-17T07:38:40.862Z,11.4
2019-05-17T07:40:04.621Z,11.1
2019-05-17T07:41:12.196Z,11.1
2019-05-17T07:42:20.102Z,11.2
2019-05-17T07:43:26.771Z,11.2
2019-05-17T07:44:36.508Z,11.1
2019-05-17T07:45:43.726Z,11.1
2019-05-17T07:46:52.363Z,11.3
2019-05-17T07:48:00.669Z,11.4
2019-05-17T07:49:07.612Z,11.5
2019-05-17T07:50:19.684Z,11.7
2019-05-17T07:51:27.266Z,11.9
2019-05-17T07:52:39.534Z,11.8
2019-05-17T07:53:46.701Z,11.9
2019-05-17T07:54:56.188Z,12
2019-05-17T07:56:03.120Z,12.1
2019-05-17T07:57:10.890Z,11.8
2019-05-17T07:58:21.114Z,12.1
2019-05-17T07:59:29.967Z,12.3
2019-05-17T08:00:39.623Z,12.1
2019-05-17T08:01:46.930Z,12.2
2019-05-17T08:02:56.520Z,12.3
2019-05-17T08:04:06.609Z,12.6
2019-05-17T08:05:15.936Z,12.8
2019-05-17T08:06:23.154Z,12.9
2019-05-17T08:07:30.435Z,12.7
2019-05-17T08:08:40.700Z,12.8
2019-05-17T08:09:47.727Z,12.7
2019-05-17T08:11:00.124Z,12.5
2019-05-17T08:12:07.505Z,12.6
2019-05-17T08:13:33.528Z,12.7
2019-05-17T08:14:40.886Z,12.7
2019-05-17T08:15:50.059Z,12.6
2019-05-17T08:16:59.713Z,12.7
2019-05-17T08:18:07.083Z,12.4
2019-05-17T08:19:17.580Z,12.1
2019-05-17T08:20:26.644Z,12.1
2019-05-17T08:21:36.185Z,12.3
2019-05-17T08:22:46.004Z,12.6
2019-05-17T08:23:53.214Z,12.6
2019-05-17T08:25:00.697Z,12.5
2019-05-17T08:26:10.471Z,12.6
2019-05-17T08:27:20.297Z,12.8
2019-05-17T08:28:27.781Z,13
2019-05-17T08:29:37.418Z,13.3
2019-05-17T08:30:49.943Z,13.6
2019-05-17T08:31:57.314Z,13.5
2019-05-17T08:33:06.658Z,13
2019-05-17T08:34:16.978Z,13.1
2019-05-17T08:35:26.457Z,13.4
2019-05-17T08:36:33.664Z,13.6
2019-05-17T08:37:42.871Z,13.9
2019-05-17T08:38:50.703Z,14
2019-05-17T08:40:00.512Z,14.3
2019-05-17T08:41:07.440Z,14.8
2019-05-17T08:42:17.234Z,15.1
2019-05-17T08:43:46.417Z,14.7
2019-05-17T08:44:53.913Z,14.5
2019-05-17T08:46:03.210Z,14.6
2019-05-17T08:47:10.752Z,14.9
2019-05-17T08:48:17.416Z,15
2019-05-17T08:49:26.804Z,15.2
2019-05-17T08:50:36.255Z,14.9
2019-05-17T08:51:43.456Z,15.1
2019-05-17T08:52:50.380Z,15.3
2019-05-17T08:53:59.830Z,15.7
2019-05-17T08:55:09.464Z,15.5
2019-05-17T08:56:16.679Z,15.4
2019-05-17T08:57:24.168Z,15.4
2019-05-17T08:58:31.378Z,15.4
2019-05-17T08:59:41.042Z,15.5
2019-05-17T09:00:50.875Z,15.4
2019-05-17T09:02:00.546Z,15.2
2019-05-17T09:03:07.477Z,15.3
2019-05-17T09:04:17.301Z,15.5
2019-05-17T09:05:26.846Z,15.7
2019-05-17T09:06:37.005Z,15.5
2019-05-17T09:07:46.480Z,15.1
2019-05-17T09:08:55.969Z,15.3
2019-05-17T09:10:02.905Z,15.5
2019-05-17T09:11:10.551Z,15.7
2019-05-17T09:12:17.760Z,15.9
2019-05-17T09:13:29.447Z,15.8
2019-05-17T09:14:36.970Z,15.5
2019-05-17T09:15:46.325Z,15.6
2019-05-17T09:16:56.098Z,15.5
2019-05-17T09:18:03.298Z,15.7
2019-05-17T09:19:10.719Z,15.5
2019-05-17T09:20:20.217Z,15.6
2019-05-17T09:21:27.330Z,15.6
2019-05-17T09:22:40.090Z,15.6
2019-05-17T09:23:47.494Z,15.7
2019-05-17T09:24:59.435Z,15.7
2019-05-17T09:26:06.525Z,15.5
2019-05-17T09:27:15.766Z,15.7
2019-05-17T09:28:22.971Z,15.9
2019-05-17T09:29:30.222Z,15.7
2019-05-17T09:30:40.133Z,16
2019-05-17T09:31:47.324Z,16.2
2019-05-17T09:32:56.782Z,16.2
2019-05-17T09:34:06.834Z,16.2
2019-05-17T09:35:16.378Z,16.2
2019-05-17T09:36:23.039Z,16
2019-05-17T09:37:31.040Z,15.7
2019-05-17T09:38:40.790Z,15.5
2019-05-17T09:39:49.551Z,15.3
2019-05-17T09:40:56.754Z,15.2
2019-05-17T09:42:06.426Z,15.2
2019-05-17T09:43:15.536Z,14.9
2019-05-17T09:44:22.752Z,14.8
2019-05-17T09:45:31.208Z,14.9
2019-05-17T09:46:39.863Z,15.1
2019-05-17T09:47:47.068Z,15.2
2019-05-17T09:48:57.221Z,15.1
2019-05-17T09:50:09.660Z,15.2
2019-05-17T09:51:17.088Z,15.1
2019-05-17T09:52:26.307Z,15.1
2019-05-17T09:53:36.030Z,15.3
2019-05-17T09:54:46.036Z,15.5
2019-05-17T09:55:53.246Z,15.5
2019-05-17T09:57:00.978Z,15.6
2019-05-17T09:58:10.527Z,15.7
2019-05-17T09:59:17.458Z,16
2019-05-17T10:00:26.805Z,15.8
2019-05-17T10:01:36.360Z,15.7
2019-05-17T10:02:45.938Z,16
2019-05-17T10:03:53.142Z,15.8
2019-05-17T10:05:00.481Z,15.9
2019-05-17T10:06:10.043Z,16.1
2019-05-17T10:07:16.977Z,16.1
2019-05-17T10:08:23.908Z,16.2
2019-05-17T10:09:30.848Z,16.5
2019-05-17T10:10:40.627Z,16.5
2019-05-17T10:11:49.757Z,16.7
2019-05-17T10:12:56.966Z,17.1
2019-05-17T10:14:06.495Z,17.6
2019-05-17T10:15:16.544Z,17.6
2019-05-17T10:16:23.757Z,17.3
2019-05-17T10:17:30.966Z,17.1
2019-05-17T10:18:39.929Z,17.2
2019-05-17T10:19:46.979Z,17.2
2019-05-17T10:20:54.190Z,17.1
2019-05-17T10:22:01.122Z,17.1
2019-05-17T10:23:10.958Z,16.9
2019-05-17T10:24:33.797Z,16.8
2019-05-17T10:25:48.869Z,16.4
2019-05-17T10:26:56.116Z,16.3
2019-05-17T10:28:05.804Z,16.4
2019-05-17T10:29:12.746Z,16.5
2019-05-17T10:30:21.531Z,17
2019-05-17T10:31:30.825Z,17.5
2019-05-17T10:32:41.241Z,17.7
2019-05-17T10:33:50.024Z,17.8
2019-05-17T10:34:57.234Z,17.1
2019-05-17T10:36:06.718Z,17
2019-05-17T10:37:13.930Z,16.8
2019-05-17T10:38:21.133Z,16.7
2019-05-17T10:39:30.248Z,16.6
2019-05-17T10:40:37.465Z,16.7
2019-05-17T10:41:49.921Z,16.8
2019-05-17T10:42:57.003Z,17.1
2019-05-17T10:44:03.939Z,17.3
2019-05-17T10:45:11.763Z,17.4
2019-05-17T10:46:21.149Z,17.5
2019-05-17T10:47:30.543Z,17.6
2019-05-17T10:48:37.749Z,17.1
2019-05-17T10:49:50.034Z,17
2019-05-17T10:50:56.966Z,17.1
2019-05-17T10:52:06.512Z,17.2
2019-05-17T10:53:30.811Z,17
2019-05-17T10:54:40.636Z,16.6
2019-05-17T10:55:50.283Z,16.8
2019-05-17T10:57:00.142Z,17
2019-05-17T10:58:09.677Z,17.3
2019-05-17T10:59:17.102Z,17.5
2019-05-17T11:00:26.572Z,17.1
2019-05-17T11:01:36.527Z,17
2019-05-17T11:02:43.740Z,17.3
2019-05-17T11:03:50.964Z,17.6
2019-05-17T11:05:01.196Z,17.8
2019-05-17T11:06:11.406Z,17.9
2019-05-17T11:07:20.497Z,17.8
2019-05-17T11:08:27.716Z,17.8
2019-05-17T11:09:34.923Z,18.1
2019-05-17T11:10:41.889Z,18.8
2019-05-17T11:11:49.109Z,19.2
2019-05-17T11:12:56.039Z,19.2
2019-05-17T11:14:02.951Z,19.2
2019-05-17T11:15:12.464Z,18.2
2019-05-17T11:16:19.406Z,18.4
2019-05-17T11:17:26.622Z,18.7
2019-05-17T11:18:33.898Z,18.8
2019-05-17T11:19:40.821Z,18.9
2019-05-17T11:20:48.091Z,19.2
2019-05-17T11:21:55.024Z,19.5
2019-05-17T11:23:01.738Z,19
2019-05-17T11:24:08.945Z,18.9
2019-05-17T11:25:16.164Z,18.3
2019-05-17T11:26:23.368Z,18.5
2019-05-17T11:27:30.580Z,18.9
2019-05-17T11:28:37.563Z,19
2019-05-17T11:29:44.779Z,19
2019-05-17T11:30:51.984Z,18.8
2019-05-17T11:31:59.196Z,18.6
2019-05-17T11:33:06.131Z,17.9
2019-05-17T11:34:13.379Z,17.6
2019-05-17T11:35:20.330Z,17.5
2019-05-17T11:36:27.264Z,17.6
2019-05-17T11:37:34.206Z,18.1
2019-05-17T11:38:41.422Z,19
2019-05-17T11:39:48.625Z,19.5
2019-05-17T11:40:55.843Z,19.3
2019-05-17T11:42:03.056Z,19.2
2019-05-17T11:43:10.271Z,19.1
2019-05-17T11:44:17.480Z,19.3
2019-05-17T11:45:32.567Z,18.8
2019-05-17T11:46:40.026Z,18.5
2019-05-17T11:47:46.974Z,19
2019-05-17T11:48:54.183Z,19.7
2019-05-17T11:50:01.132Z,20.2
2019-05-17T11:51:08.413Z,20.5
2019-05-17T11:52:15.351Z,20.2
2019-05-17T11:53:22.568Z,19.9
2019-05-17T11:54:29.509Z,20
2019-05-17T11:55:36.726Z,20.1
2019-05-17T11:56:43.655Z,20.2
2019-05-17T11:57:50.871Z,20.4
2019-05-17T11:58:58.081Z,20.4
2019-05-17T12:00:05.016Z,20.3
2019-05-17T12:01:11.970Z,20.3
2019-05-17T12:02:22.049Z,20.7
2019-05-17T12:03:29.261Z,21.4
2019-05-17T12:04:35.930Z,22
2019-05-17T12:05:42.868Z,21.9
2019-05-17T12:06:49.815Z,21.5
2019-05-17T12:07:57.028Z,20.9
2019-05-17T12:09:03.969Z,20.3
2019-05-17T12:10:11.181Z,20.2
2019-05-17T12:11:18.478Z,20.4
2019-05-17T12:12:25.685Z,20.1
2019-05-17T12:13:32.896Z,19.8
2019-05-17T12:14:39.833Z,19.4
2019-05-17T12:15:47.043Z,19.6
2019-05-17T12:16:54.477Z,19.9
2019-05-17T12:18:01.699Z,20
2019-05-17T12:19:08.911Z,19.5
2019-05-17T12:20:16.125Z,19.5
2019-05-17T12:21:23.327Z,20.1
2019-05-17T12:22:30.549Z,20.8
2019-05-17T12:23:37.768Z,21.3
2019-05-17T12:24:44.995Z,21.8
2019-05-17T12:25:51.937Z,21.7
2019-05-17T12:26:58.888Z,22.1
2019-05-17T12:28:06.097Z,22.2
2019-05-17T12:29:13.064Z,22.2
2019-05-17T12:30:20.278Z,22.4
2019-05-17T12:31:27.514Z,22.7
2019-05-17T12:32:34.732Z,22.2
2019-05-17T12:33:41.941Z,21.8
2019-05-17T12:34:49.186Z,21.3
2019-05-17T12:35:56.398Z,20.8
2019-05-17T12:37:03.623Z,21
2019-05-17T12:38:10.564Z,21.7
2019-05-17T12:39:17.856Z,22.2
2019-05-17T12:40:25.068Z,22.4
2019-05-17T12:41:32.278Z,22.9
2019-05-17T12:42:39.230Z,23.5
2019-05-17T12:43:46.175Z,23.8
2019-05-17T12:44:53.387Z,23.9
2019-05-17T12:46:02.230Z,23.6
2019-05-17T12:47:09.439Z,23.1
2019-05-17T12:48:16.389Z,22.8
2019-05-17T12:49:23.332Z,22.3
2019-05-17T12:50:30.310Z,21.9
2019-05-17T12:51:37.518Z,21
2019-05-17T12:52:44.736Z,20.1
2019-05-17T12:54:06.601Z,20.2
2019-05-17T12:55:13.552Z,20.8
2019-05-17T12:56:20.779Z,20.6
2019-05-17T12:57:28.002Z,20.9
2019-05-17T12:58:35.216Z,21.1
2019-05-17T12:59:42.435Z,21.3
2019-05-17T13:00:49.700Z,21
2019-05-17T13:01:56.932Z,21.1
2019-05-17T13:03:04.187Z,21.1
2019-05-17T13:04:11.408Z,20.9
2019-05-17T13:05:18.620Z,20.8
2019-05-17T13:06:25.282Z,21.2
2019-05-17T13:07:32.490Z,21.6
2019-05-17T13:08:39.702Z,21.6
2019-05-17T13:09:46.982Z,21.7
2019-05-17T13:10:54.191Z,21.6
2019-05-17T13:12:01.405Z,21.8
2019-05-17T13:13:10.295Z,22.2
2019-05-17T13:14:17.500Z,22.7
2019-05-17T13:15:24.713Z,22.8
2019-05-17T13:16:31.931Z,22.7
2019-05-17T13:17:39.147Z,22.8
2019-05-17T13:18:46.104Z,22.9
2019-05-17T13:19:53.044Z,22.5
2019-05-17T13:21:00.272Z,21.9
2019-05-17T13:22:07.502Z,21.7
2019-05-17T13:23:14.748Z,21.6
2019-05-17T13:24:21.968Z,21.5
2019-05-17T13:25:29.190Z,21.1
2019-05-17T13:26:36.405Z,21.3
2019-05-17T13:27:43.616Z,21.9
2019-05-17T13:28:50.828Z,22.6
2019-05-17T13:29:58.041Z,23
2019-05-17T13:31:05.254Z,23.4
2019-05-17T13:32:12.477Z,23.3
2019-05-17T13:33:19.695Z,23.4
2019-05-17T13:34:26.916Z,22.9
2019-05-17T13:35:34.160Z,22.4
2019-05-17T13:36:41.426Z,22.5
2019-05-17T13:37:48.649Z,22.4
2019-05-17T13:38:55.860Z,22.5
2019-05-17T13:40:03.080Z,22.4
2019-05-17T13:41:10.026Z,22.7
2019-05-17T13:42:17.242Z,23.1
2019-05-17T13:43:24.500Z,23.5
2019-05-17T13:44:31.748Z,23.5
2019-05-17T13:45:38.690Z,23.5
2019-05-17T13:46:45.914Z,23.9
2019-05-17T13:47:53.123Z,23.7
2019-05-17T13:49:00.349Z,23.7
2019-05-17T13:50:07.565Z,23.6
2019-05-17T13:51:14.864Z,23.4
2019-05-17T13:52:22.151Z,23.1
2019-05-17T13:53:29.113Z,23
2019-05-17T13:54:36.345Z,23
2019-05-17T13:55:43.550Z,22.3
2019-05-17T13:56:50.762Z,22.6
2019-05-17T13:57:57.187Z,22.9
2019-05-17T13:59:04.404Z,23.2
2019-05-17T14:00:11.624Z,22.5
2019-05-17T14:01:18.834Z,22.3
2019-05-17T14:02:25.782Z,22.6
2019-05-17T14:03:32.750Z,22.7
2019-05-17T14:04:40.040Z,22.8
2019-05-17T14:05:47.285Z,23.2
2019-05-17T14:06:54.524Z,23.3
2019-05-17T14:08:01.746Z,23.6
2019-05-17T14:09:08.964Z,23.4
2019-05-17T14:10:31.849Z,23.4
2019-05-17T14:11:39.248Z,23.6
2019-05-17T14:12:46.479Z,24.1
2019-05-17T14:13:53.152Z,24.2
2019-05-17T14:15:00.371Z,24.4
2019-05-17T14:16:07.580Z,24.6
2019-05-17T14:17:14.793Z,24.2
2019-05-17T14:18:21.739Z,23.8
2019-05-17T14:19:28.678Z,23.6
2019-05-17T14:20:35.911Z,23.3
2019-05-17T14:21:43.121Z,23
2019-05-17T14:22:50.346Z,22.5
2019-05-17T14:23:57.568Z,22.3
2019-05-17T14:25:04.797Z,22.3
2019-05-17T14:26:12.019Z,22.5
2019-05-17T14:27:18.974Z,23
2019-05-17T14:28:26.198Z,23.5
2019-05-17T14:29:33.157Z,23.1
2019-05-17T14:30:40.377Z,23.1
2019-05-17T14:31:47.662Z,23.6
2019-05-17T14:32:54.878Z,24.3
2019-05-17T14:34:02.098Z,24.3
2019-05-17T14:35:10.462Z,24.4
2019-05-17T14:36:18.181Z,24.3
2019-05-17T14:37:25.129Z,23.7
2019-05-17T14:38:32.336Z,23.4
2019-05-17T14:39:39.551Z,23.7
2019-05-17T14:41:08.423Z,24
2019-05-17T14:42:16.087Z,24.3
2019-05-17T14:43:23.027Z,24.1
2019-05-17T14:44:30.262Z,23.9
2019-05-17T14:45:37.207Z,23.7
2019-05-17T14:46:44.424Z,23.6
2019-05-17T14:47:51.364Z,23.9
2019-05-17T14:48:58.310Z,24.3
2019-05-17T14:50:05.529Z,24.4
2019-05-17T14:51:12.469Z,24.2
2019-05-17T14:52:19.696Z,23.7
2019-05-17T14:53:26.906Z,23.8
2019-05-17T14:54:33.852Z,24
2019-05-17T14:55:41.078Z,23.5
2019-05-17T14:56:48.309Z,23
2019-05-17T14:57:55.529Z,23
2019-05-17T14:59:02.745Z,23.4
2019-05-17T15:00:09.966Z,23.6
2019-05-17T15:01:16.915Z,23.3
2019-05-17T15:02:24.128Z,23.3
2019-05-17T15:03:31.090Z,23.1
2019-05-17T15:04:38.367Z,23.7
2019-05-17T15:05:45.587Z,24.1
2019-05-17T15:06:52.805Z,24.5
2019-05-17T15:08:00.124Z,24.9
2019-05-17T15:09:11.243Z,25
2019-05-17T15:10:18.530Z,25
2019-05-17T15:11:25.765Z,24.9
2019-05-17T15:12:32.988Z,24.6
2019-05-17T15:13:40.213Z,24.5
2019-05-17T15:14:47.435Z,24.8
2019-05-17T15:15:54.740Z,24.7
2019-05-17T15:17:02.077Z,24.7
2019-05-17T15:18:10.370Z,24.6
2019-05-17T15:19:17.581Z,24.6
2019-05-17T15:20:24.796Z,24.9
2019-05-17T15:21:32.017Z,25.1
2019-05-17T15:22:38.738Z,24.8
2019-05-17T15:23:45.974Z,24.8
2019-05-17T15:24:52.924Z,25.1
2019-05-17T15:26:00.134Z,25.5
2019-05-17T15:27:07.100Z,25.5
2019-05-17T15:28:14.337Z,25.2
2019-05-17T15:29:21.570Z,25.2
2019-05-17T15:30:28.775Z,25.4
2019-05-17T15:31:35.989Z,24.7
2019-05-17T15:32:43.289Z,24.7
2019-05-17T15:33:50.550Z,24.6
2019-05-17T15:34:57.768Z,24.5